Terminal Aerodrome Forecast
Issued by NWS

Home | Current Version | Previous Version | Text Only | Print | Product List | Glossary On
Versions: 1 2 3 4 5 6 7 8 9 10 11 12 13 14 15 16
669
FTUS44 KTSA 260113 AAA
TAFMLC
TAF AMD
KMLC 260113Z 2601/2624 02010KT P6SM OVC008
      TEMPO 2601/2603 5SM -RA BR BKN015
     FM260500 36010KT P6SM BKN050
     FM261400 02012KT P6SM SCT250=

USA.gov is the U.S. government's official web portal to all federal, state and local government web resources and services.